sensor_id;sensor_type;location;lat;lon;timestamp;pressure;altitude;pressure_sealevel;temperature;humidity
12213;BME280;6169;44.158;22.788;2023-07-08T00:00:38;101106.69;;;21.14;67.88
12213;BME280;6169;44.158;22.788;2023-07-08T00:05:40;101097.44;;;20.62;71.09
12213;BME280;6169;44.158;22.788;2023-07-08T00:10:43;101092.59;;;20.49;70.13
12213;BME280;6169;44.158;22.788;2023-07-08T00:15:47;101105.56;;;20.72;69.06
12213;BME280;6169;44.158;22.788;2023-07-08T00:20:50;101095.69;;;20.66;68.83
12213;BME280;6169;44.158;22.788;2023-07-08T00:25:52;101095.03;;;20.75;68.31
12213;BME280;6169;44.158;22.788;2023-07-08T00:30:56;101087.03;;;20.54;68.81
12213;BME280;6169;44.158;22.788;2023-07-08T00:35:58;101088.56;;;20.12;70.68
12213;BME280;6169;44.158;22.788;2023-07-08T00:41:08;101081.66;;;20.39;69.23
12213;BME280;6169;44.158;22.788;2023-07-08T00:46:21;101072.34;;;20.35;69.10
12213;BME280;6169;44.158;22.788;2023-07-08T00:51:28;101076.16;;;20.39;68.32
12213;BME280;6169;44.158;22.788;2023-07-08T00:56:32;101073.81;;;20.27;68.69
12213;BME280;6169;44.158;22.788;2023-07-08T01:01:38;101080.38;;;20.31;68.26
12213;BME280;6169;44.158;22.788;2023-07-08T01:06:45;101076.00;;;20.01;69.37
12213;BME280;6169;44.158;22.788;2023-07-08T01:11:48;101060.97;;;20.12;69.13
12213;BME280;6169;44.158;22.788;2023-07-08T01:16:51;101054.38;;;20.37;68.12
12213;BME280;6169;44.158;22.788;2023-07-08T01:21:59;101064.69;;;20.50;67.28
12213;BME280;6169;44.158;22.788;2023-07-08T01:27:03;101075.09;;;20.35;67.82
12213;BME280;6169;44.158;22.788;2023-07-08T01:32:08;101074.91;;;20.50;66.81
12213;BME280;6169;44.158;22.788;2023-07-08T01:37:16;101073.69;;;20.37;68.13
12213;BME280;6169;44.158;22.788;2023-07-08T01:42:18;101069.44;;;19.92;69.86
12213;BME280;6169;44.158;22.788;2023-07-08T01:47:22;101065.88;;;19.91;70.40
12213;BME280;6169;44.158;22.788;2023-07-08T01:52:26;101083.31;;;19.87;70.23
12213;BME280;6169;44.158;22.788;2023-07-08T01:57:28;101078.28;;;19.65;71.79
12213;BME280;6169;44.158;22.788;2023-07-08T02:02:30;101073.47;;;20.04;69.77
12213;BME280;6169;44.158;22.788;2023-07-08T02:07:34;101075.78;;;19.63;71.58
12213;BME280;6169;44.158;22.788;2023-07-08T02:12:36;101081.03;;;19.94;69.51
12213;BME280;6169;44.158;22.788;2023-07-08T02:17:38;101082.69;;;19.60;70.42
12213;BME280;6169;44.158;22.788;2023-07-08T02:22:42;101075.88;;;19.13;72.54
12213;BME280;6169;44.158;22.788;2023-07-08T02:27:44;101091.09;;;19.45;71.81
12213;BME280;6169;44.158;22.788;2023-07-08T02:32:46;101095.69;;;19.15;71.91
12213;BME280;6169;44.158;22.788;2023-07-08T02:37:58;101096.25;;;19.12;72.11
12213;BME280;6169;44.158;22.788;2023-07-08T02:43:00;101108.03;;;19.23;71.42
12213;BME280;6169;44.158;22.788;2023-07-08T02:48:03;101103.38;;;18.74;73.94
12213;BME280;6169;44.158;22.788;2023-07-08T02:53:06;101105.28;;;19.23;70.82
12213;BME280;6169;44.158;22.788;2023-07-08T02:58:09;101118.78;;;19.25;70.15
12213;BME280;6169;44.158;22.788;2023-07-08T03:03:11;101122.44;;;19.10;71.09
12213;BME280;6169;44.158;22.788;2023-07-08T03:08:17;101132.59;;;19.20;70.34
12213;BME280;6169;44.158;22.788;2023-07-08T03:13:19;101137.94;;;19.01;71.18
12213;BME280;6169;44.158;22.788;2023-07-08T03:18:21;101141.22;;;19.08;70.88
12213;BME280;6169;44.158;22.788;2023-07-08T03:23:26;101147.75;;;19.22;71.66
12213;BME280;6169;44.158;22.788;2023-07-08T03:28:28;101147.78;;;19.12;71.81
12213;BME280;6169;44.158;22.788;2023-07-08T03:33:30;101122.38;;;20.28;67.00
12213;BME280;6169;44.158;22.788;2023-07-08T03:38:34;101140.91;;;21.75;60.40
12213;BME280;6169;44.158;22.788;2023-07-08T03:43:36;101155.91;;;22.21;58.63
12213;BME280;6169;44.158;22.788;2023-07-08T03:48:38;101165.13;;;21.97;59.10
12213;BME280;6169;44.158;22.788;2023-07-08T03:53:42;101172.59;;;21.07;64.53
12213;BME280;6169;44.158;22.788;2023-07-08T03:58:44;101171.28;;;20.52;67.02
12213;BME280;6169;44.158;22.788;2023-07-08T04:03:46;101175.94;;;20.80;67.63
12213;BME280;6169;44.158;22.788;2023-07-08T04:08:50;101176.78;;;21.24;64.92
12213;BME280;6169;44.158;22.788;2023-07-08T04:13:52;101177.59;;;21.05;67.02
12213;BME280;6169;44.158;22.788;2023-07-08T04:18:55;101171.84;;;21.02;65.86
12213;BME280;6169;44.158;22.788;2023-07-08T04:23:59;101164.88;;;21.04;65.22
12213;BME280;6169;44.158;22.788;2023-07-08T04:29:01;101167.50;;;21.14;65.09
12213;BME280;6169;44.158;22.788;2023-07-08T04:34:03;101166.47;;;21.29;64.67
12213;BME280;6169;44.158;22.788;2023-07-08T04:39:09;101161.44;;;21.12;64.64
12213;BME280;6169;44.158;22.788;2023-07-08T04:44:11;101165.84;;;21.32;64.82
12213;BME280;6169;44.158;22.788;2023-07-08T04:49:14;101170.53;;;20.94;65.11
12213;BME280;6169;44.158;22.788;2023-07-08T04:54:18;101179.63;;;21.19;65.57
12213;BME280;6169;44.158;22.788;2023-07-08T04:59:22;101139.72;;;20.58;65.85
12213;BME280;6169;44.158;22.788;2023-07-08T05:04:25;101185.25;;;21.51;63.57
12213;BME280;6169;44.158;22.788;2023-07-08T05:09:29;101191.72;;;21.98;62.31
12213;BME280;6169;44.158;22.788;2023-07-08T05:14:32;101196.97;;;22.14;61.81
12213;BME280;6169;44.158;22.788;2023-07-08T05:19:34;101195.75;;;22.06;61.06
12213;BME280;6169;44.158;22.788;2023-07-08T05:24:38;101198.97;;;21.94;62.26
12213;BME280;6169;44.158;22.788;2023-07-08T05:29:40;101200.38;;;21.78;61.80
12213;BME280;6169;44.158;22.788;2023-07-08T05:34:44;101173.56;;;21.92;61.42
12213;BME280;6169;44.158;22.788;2023-07-08T05:39:48;101221.97;;;22.09;61.33
12213;BME280;6169;44.158;22.788;2023-07-08T05:44:50;101220.75;;;22.34;58.77
12213;BME280;6169;44.158;22.788;2023-07-08T05:49:53;101221.28;;;22.82;57.98
12213;BME280;6169;44.158;22.788;2023-07-08T05:54:56;101233.66;;;22.71;58.56
12213;BME280;6169;44.158;22.788;2023-07-08T05:59:58;101243.50;;;22.63;57.67
12213;BME280;6169;44.158;22.788;2023-07-08T06:05:01;101213.84;;;22.78;56.58
12213;BME280;6169;44.158;22.788;2023-07-08T06:10:05;101242.31;;;22.83;56.99
12213;BME280;6169;44.158;22.788;2023-07-08T06:15:08;101236.31;;;22.76;56.14
12213;BME280;6169;44.158;22.788;2023-07-08T06:20:12;101256.66;;;23.41;56.35
12213;BME280;6169;44.158;22.788;2023-07-08T06:25:16;101248.38;;;23.13;54.70
12213;BME280;6169;44.158;22.788;2023-07-08T06:30:18;101248.06;;;23.14;54.29
12213;BME280;6169;44.158;22.788;2023-07-08T06:35:20;101249.25;;;23.64;53.71
12213;BME280;6169;44.158;22.788;2023-07-08T06:40:24;101253.16;;;23.63;54.01
12213;BME280;6169;44.158;22.788;2023-07-08T06:45:26;101247.00;;;23.52;54.35
12213;BME280;6169;44.158;22.788;2023-07-08T06:50:28;101245.94;;;23.75;53.70
12213;BME280;6169;44.158;22.788;2023-07-08T06:55:32;101245.38;;;23.37;54.68
12213;BME280;6169;44.158;22.788;2023-07-08T07:00:34;101248.28;;;23.68;53.09
12213;BME280;6169;44.158;22.788;2023-07-08T07:05:36;101245.16;;;23.61;52.39
12213;BME280;6169;44.158;22.788;2023-07-08T07:10:40;101251.84;;;23.82;53.19
12213;BME280;6169;44.158;22.788;2023-07-08T07:15:42;101244.53;;;24.54;51.64
12213;BME280;6169;44.158;22.788;2023-07-08T07:20:49;101243.69;;;24.22;51.72
12213;BME280;6169;44.158;22.788;2023-07-08T07:25:53;101262.34;;;24.53;51.94
12213;BME280;6169;44.158;22.788;2023-07-08T07:30:57;101277.69;;;24.73;50.05
12213;BME280;6169;44.158;22.788;2023-07-08T07:35:59;101265.16;;;25.24;49.27
12213;BME280;6169;44.158;22.788;2023-07-08T07:41:03;101260.00;;;24.69;49.38
12213;BME280;6169;44.158;22.788;2023-07-08T07:46:07;101269.69;;;24.49;51.14
12213;BME280;6169;44.158;22.788;2023-07-08T07:51:11;101269.19;;;24.78;50.59
12213;BME280;6169;44.158;22.788;2023-07-08T07:56:15;101261.16;;;25.16;48.49
12213;BME280;6169;44.158;22.788;2023-07-08T08:01:18;101251.81;;;25.12;48.94
12213;BME280;6169;44.158;22.788;2023-07-08T08:06:20;101254.06;;;25.50;48.11
12213;BME280;6169;44.158;22.788;2023-07-08T08:11:24;101260.44;;;25.42;48.13
12213;BME280;6169;44.158;22.788;2023-07-08T08:16:27;101257.38;;;26.04;45.55
12213;BME280;6169;44.158;22.788;2023-07-08T08:21:29;101259.81;;;26.23;45.82
12213;BME280;6169;44.158;22.788;2023-07-08T08:26:32;101256.66;;;26.60;46.06
12213;BME280;6169;44.158;22.788;2023-07-08T08:31:35;101246.72;;;26.80;44.25
12213;BME280;6169;44.158;22.788;2023-07-08T08:36:37;101245.34;;;26.47;43.22
12213;BME280;6169;44.158;22.788;2023-07-08T08:41:41;101246.03;;;26.36;43.27
12213;BME280;6169;44.158;22.788;2023-07-08T08:46:51;101233.41;;;26.38;44.17
12213;BME280;6169;44.158;22.788;2023-07-08T08:52:00;101235.22;;;26.43;43.15
12213;BME280;6169;44.158;22.788;2023-07-08T08:57:12;101236.38;;;26.16;44.24
12213;BME280;6169;44.158;22.788;2023-07-08T09:02:32;101240.75;;;26.52;42.18
12213;BME280;6169;44.158;22.788;2023-07-08T09:07:41;101234.81;;;26.62;42.29
12213;BME280;6169;44.158;22.788;2023-07-08T09:12:49;101236.09;;;27.11;42.38
12213;BME280;6169;44.158;22.788;2023-07-08T09:17:53;101204.97;;;26.54;42.12
12213;BME280;6169;44.158;22.788;2023-07-08T09:23:07;101232.69;;;26.59;43.76
12213;BME280;6169;44.158;22.788;2023-07-08T09:28:14;101222.00;;;26.69;43.53
12213;BME280;6169;44.158;22.788;2023-07-08T09:33:16;101230.69;;;27.06;43.43
12213;BME280;6169;44.158;22.788;2023-07-08T09:38:22;101233.72;;;27.22;42.82
12213;BME280;6169;44.158;22.788;2023-07-08T09:43:27;101228.03;;;27.10;42.66
12213;BME280;6169;44.158;22.788;2023-07-08T09:48:35;101231.97;;;27.38;42.31
12213;BME280;6169;44.158;22.788;2023-07-08T09:53:37;101232.34;;;27.07;43.05
12213;BME280;6169;44.158;22.788;2023-07-08T09:58:41;101216.56;;;27.11;42.92
12213;BME280;6169;44.158;22.788;2023-07-08T10:03:46;101209.97;;;27.16;41.69
12213;BME280;6169;44.158;22.788;2023-07-08T10:08:48;101161.63;;;27.45;41.14
12213;BME280;6169;44.158;22.788;2023-07-08T10:13:53;101212.53;;;27.51;41.27
12213;BME280;6169;44.158;22.788;2023-07-08T10:18:56;101227.16;;;27.18;41.58
12213;BME280;6169;44.158;22.788;2023-07-08T10:24:12;101217.72;;;27.31;41.39
12213;BME280;6169;44.158;22.788;2023-07-08T10:29:29;101219.44;;;27.45;41.88
12213;BME280;6169;44.158;22.788;2023-07-08T10:34:40;101226.34;;;27.89;40.35
12213;BME280;6169;44.158;22.788;2023-07-08T10:40:02;101210.97;;;28.16;40.78
12213;BME280;6169;44.158;22.788;2023-07-08T10:45:14;101219.66;;;27.40;41.11
12213;BME280;6169;44.158;22.788;2023-07-08T10:50:29;101214.81;;;28.12;40.73
12213;BME280;6169;44.158;22.788;2023-07-08T10:55:39;101212.81;;;28.12;40.31
12213;BME280;6169;44.158;22.788;2023-07-08T11:00:52;101201.94;;;27.77;40.16
12213;BME280;6169;44.158;22.788;2023-07-08T11:06:02;101211.25;;;28.36;39.18
12213;BME280;6169;44.158;22.788;2023-07-08T11:11:11;101206.88;;;28.14;39.51
12213;BME280;6169;44.158;22.788;2023-07-08T11:16:21;101208.50;;;27.81;39.72
12213;BME280;6169;44.158;22.788;2023-07-08T11:21:29;101208.75;;;28.10;39.38
12213;BME280;6169;44.158;22.788;2023-07-08T11:26:38;101225.94;;;27.57;40.25
12213;BME280;6169;44.158;22.788;2023-07-08T11:31:46;101210.50;;;27.93;39.50
12213;BME280;6169;44.158;22.788;2023-07-08T11:36:51;101228.44;;;27.92;39.94
12213;BME280;6169;44.158;22.788;2023-07-08T11:42:05;101222.13;;;27.62;40.09
12213;BME280;6169;44.158;22.788;2023-07-08T11:47:19;101210.72;;;27.25;41.64
12213;BME280;6169;44.158;22.788;2023-07-08T11:52:23;101207.31;;;27.82;40.56
12213;BME280;6169;44.158;22.788;2023-07-08T11:57:30;101198.47;;;28.01;39.07
12213;BME280;6169;44.158;22.788;2023-07-08T12:02:49;101204.91;;;28.14;38.58
12213;BME280;6169;44.158;22.788;2023-07-08T12:07:55;101179.50;;;28.07;39.46
12213;BME280;6169;44.158;22.788;2023-07-08T12:13:02;101202.47;;;28.70;37.96
12213;BME280;6169;44.158;22.788;2023-07-08T12:18:13;101189.50;;;27.33;39.59
12213;BME280;6169;44.158;22.788;2023-07-08T12:23:18;101188.22;;;27.72;39.24
12213;BME280;6169;44.158;22.788;2023-07-08T12:28:22;101184.28;;;27.86;38.88
12213;BME280;6169;44.158;22.788;2023-07-08T12:33:30;101179.88;;;27.85;39.01
12213;BME280;6169;44.158;22.788;2023-07-08T12:38:38;101188.91;;;28.02;38.38
12213;BME280;6169;44.158;22.788;2023-07-08T12:43:40;101181.25;;;27.78;38.07
12213;BME280;6169;44.158;22.788;2023-07-08T12:48:44;101168.25;;;27.62;38.66
12213;BME280;6169;44.158;22.788;2023-07-08T12:53:47;101173.66;;;27.67;38.08
12213;BME280;6169;44.158;22.788;2023-07-08T12:58:50;101171.69;;;27.37;38.08
12213;BME280;6169;44.158;22.788;2023-07-08T13:03:58;101156.44;;;27.77;37.60
12213;BME280;6169;44.158;22.788;2023-07-08T13:09:08;101144.25;;;27.81;37.22
12213;BME280;6169;44.158;22.788;2023-07-08T13:14:12;101157.41;;;28.14;36.41
12213;BME280;6169;44.158;22.788;2023-07-08T13:19:18;101163.34;;;27.37;36.67
12213;BME280;6169;44.158;22.788;2023-07-08T13:24:21;101167.50;;;28.07;35.64
12213;BME280;6169;44.158;22.788;2023-07-08T13:29:24;101162.38;;;27.75;36.49
12213;BME280;6169;44.158;22.788;2023-07-08T13:34:28;101166.97;;;27.92;36.67
12213;BME280;6169;44.158;22.788;2023-07-08T13:39:32;101160.16;;;28.60;35.11
12213;BME280;6169;44.158;22.788;2023-07-08T13:44:42;101159.72;;;28.12;35.65
12213;BME280;6169;44.158;22.788;2023-07-08T13:49:49;101155.81;;;28.38;35.42
12213;BME280;6169;44.158;22.788;2023-07-08T13:54:58;101163.00;;;27.60;35.24
12213;BME280;6169;44.158;22.788;2023-07-08T14:00:03;101160.00;;;27.98;34.76
12213;BME280;6169;44.158;22.788;2023-07-08T14:05:10;101154.03;;;28.33;34.29
12213;BME280;6169;44.158;22.788;2023-07-08T14:10:14;101158.25;;;28.52;34.06
12213;BME280;6169;44.158;22.788;2023-07-08T14:15:17;101159.19;;;28.43;34.72
12213;BME280;6169;44.158;22.788;2023-07-08T14:20:23;101165.94;;;27.97;34.01
12213;BME280;6169;44.158;22.788;2023-07-08T14:25:28;101156.03;;;27.87;34.00
12213;BME280;6169;44.158;22.788;2023-07-08T14:30:30;101153.00;;;28.50;33.46
12213;BME280;6169;44.158;22.788;2023-07-08T14:35:34;101160.78;;;27.87;32.35
12213;BME280;6169;44.158;22.788;2023-07-08T14:40:37;101169.06;;;27.62;32.73
12213;BME280;6169;44.158;22.788;2023-07-08T14:45:42;101159.41;;;27.93;31.64
12213;BME280;6169;44.158;22.788;2023-07-08T14:50:48;101150.53;;;27.57;32.19
12213;BME280;6169;44.158;22.788;2023-07-08T14:55:53;101167.44;;;27.61;31.68
12213;BME280;6169;44.158;22.788;2023-07-08T15:00:57;101163.22;;;27.55;31.75
12213;BME280;6169;44.158;22.788;2023-07-08T15:06:01;101172.38;;;27.76;31.72
12213;BME280;6169;44.158;22.788;2023-07-08T15:11:04;101144.19;;;28.02;31.19
12213;BME280;6169;44.158;22.788;2023-07-08T15:16:10;101162.63;;;27.82;31.52
12213;BME280;6169;44.158;22.788;2023-07-08T15:21:16;101157.59;;;27.76;30.85
12213;BME280;6169;44.158;22.788;2023-07-08T15:26:19;101155.59;;;27.64;31.40
12213;BME280;6169;44.158;22.788;2023-07-08T15:31:31;101162.75;;;27.53;30.40
12213;BME280;6169;44.158;22.788;2023-07-08T15:36:36;101163.56;;;28.08;30.59
12213;BME280;6169;44.158;22.788;2023-07-08T15:41:38;101173.16;;;27.65;30.81
12213;BME280;6169;44.158;22.788;2023-07-08T15:46:41;101176.88;;;28.35;30.29
12213;BME280;6169;44.158;22.788;2023-07-08T15:51:46;101172.88;;;28.12;29.72
12213;BME280;6169;44.158;22.788;2023-07-08T15:56:49;101164.03;;;28.10;29.49
12213;BME280;6169;44.158;22.788;2023-07-08T16:01:53;101169.59;;;27.76;29.93
12213;BME280;6169;44.158;22.788;2023-07-08T16:06:56;101174.63;;;27.83;29.40
12213;BME280;6169;44.158;22.788;2023-07-08T16:11:58;101173.06;;;27.73;29.56
12213;BME280;6169;44.158;22.788;2023-07-08T16:17:01;101179.41;;;27.41;29.65
12213;BME280;6169;44.158;22.788;2023-07-08T16:22:05;101174.16;;;27.39;29.90
12213;BME280;6169;44.158;22.788;2023-07-08T16:27:10;101168.38;;;27.23;31.06
12213;BME280;6169;44.158;22.788;2023-07-08T16:32:13;101171.97;;;27.24;30.82
12213;BME280;6169;44.158;22.788;2023-07-08T16:37:19;101165.91;;;27.43;30.31
12213;BME280;6169;44.158;22.788;2023-07-08T16:42:21;101159.84;;;26.90;31.07
12213;BME280;6169;44.158;22.788;2023-07-08T16:47:24;101149.25;;;26.83;31.08
12213;BME280;6169;44.158;22.788;2023-07-08T16:52:27;101157.03;;;26.99;31.17
12213;BME280;6169;44.158;22.788;2023-07-08T16:57:30;101156.97;;;26.78;30.86
12213;BME280;6169;44.158;22.788;2023-07-08T17:02:32;101159.91;;;26.52;31.38
12213;BME280;6169;44.158;22.788;2023-07-08T17:07:36;101160.63;;;26.69;31.07
12213;BME280;6169;44.158;22.788;2023-07-08T17:12:39;101161.09;;;26.42;31.60
12213;BME280;6169;44.158;22.788;2023-07-08T17:17:45;101158.97;;;26.30;31.90
12213;BME280;6169;44.158;22.788;2023-07-08T17:22:50;101158.47;;;26.28;32.20
12213;BME280;6169;44.158;22.788;2023-07-08T17:27:54;101168.06;;;26.10;32.38
12213;BME280;6169;44.158;22.788;2023-07-08T17:32:58;101170.53;;;25.76;32.35
12213;BME280;6169;44.158;22.788;2023-07-08T17:38:09;101161.88;;;25.78;32.52
12213;BME280;6169;44.158;22.788;2023-07-08T17:43:12;101159.44;;;25.50;32.60
12213;BME280;6169;44.158;22.788;2023-07-08T17:48:19;101159.25;;;25.38;34.15
12213;BME280;6169;44.158;22.788;2023-07-08T17:53:25;101179.72;;;25.59;34.09
12213;BME280;6169;44.158;22.788;2023-07-08T17:58:31;101177.25;;;25.32;34.75
12213;BME280;6169;44.158;22.788;2023-07-08T18:03:34;101183.78;;;25.19;36.11
12213;BME280;6169;44.158;22.788;2023-07-08T18:08:38;101182.63;;;24.62;37.41
12213;BME280;6169;44.158;22.788;2023-07-08T18:13:41;101185.19;;;24.59;37.68
12213;BME280;6169;44.158;22.788;2023-07-08T18:18:44;101193.97;;;24.12;38.99
12213;BME280;6169;44.158;22.788;2023-07-08T18:23:50;101209.50;;;23.77;40.62
12213;BME280;6169;44.158;22.788;2023-07-08T18:28:53;101204.78;;;23.41;40.91
12213;BME280;6169;44.158;22.788;2023-07-08T18:33:55;101205.81;;;23.45;40.92
12213;BME280;6169;44.158;22.788;2023-07-08T18:38:59;101221.13;;;23.29;40.92
12213;BME280;6169;44.158;22.788;2023-07-08T18:44:07;101222.56;;;22.71;42.48
12213;BME280;6169;44.158;22.788;2023-07-08T18:49:11;101221.06;;;22.32;43.60
12213;BME280;6169;44.158;22.788;2023-07-08T18:54:16;101220.41;;;22.54;42.55
12213;BME280;6169;44.158;22.788;2023-07-08T18:59:19;101228.78;;;22.35;42.67
12213;BME280;6169;44.158;22.788;2023-07-08T19:04:23;101232.53;;;22.25;42.92
12213;BME280;6169;44.158;22.788;2023-07-08T19:09:28;101220.13;;;22.37;42.70
12213;BME280;6169;44.158;22.788;2023-07-08T19:14:34;101233.88;;;22.28;43.01
12213;BME280;6169;44.158;22.788;2023-07-08T19:19:36;101244.22;;;22.22;43.63
12213;BME280;6169;44.158;22.788;2023-07-08T19:24:40;101237.25;;;22.25;43.71
12213;BME280;6169;44.158;22.788;2023-07-08T19:29:43;101241.69;;;22.07;44.58
12213;BME280;6169;44.158;22.788;2023-07-08T19:34:47;101234.53;;;21.87;44.99
12213;BME280;6169;44.158;22.788;2023-07-08T19:39:52;101243.56;;;22.12;45.36
12213;BME280;6169;44.158;22.788;2023-07-08T19:44:54;101242.84;;;21.87;45.39
12213;BME280;6169;44.158;22.788;2023-07-08T19:49:56;101248.06;;;21.51;47.01
12213;BME280;6169;44.158;22.788;2023-07-08T19:55:00;101247.81;;;21.66;45.93
12213;BME280;6169;44.158;22.788;2023-07-08T20:00:03;101254.66;;;21.31;46.93
12213;BME280;6169;44.158;22.788;2023-07-08T20:05:08;101249.34;;;21.58;46.45
12213;BME280;6169;44.158;22.788;2023-07-08T20:10:13;101255.56;;;21.45;46.26
12213;BME280;6169;44.158;22.788;2023-07-08T20:15:16;101260.31;;;21.21;47.11
12213;BME280;6169;44.158;22.788;2023-07-08T20:20:20;101265.63;;;21.60;46.72
12213;BME280;6169;44.158;22.788;2023-07-08T20:25:24;101265.03;;;21.63;47.70
12213;BME280;6169;44.158;22.788;2023-07-08T20:30:27;101279.94;;;21.43;46.74
12213;BME280;6169;44.158;22.788;2023-07-08T20:35:30;101292.41;;;20.92;48.32
12213;BME280;6169;44.158;22.788;2023-07-08T20:40:36;101285.50;;;20.95;47.32
12213;BME280;6169;44.158;22.788;2023-07-08T20:45:39;101294.13;;;20.88;47.19
12213;BME280;6169;44.158;22.788;2023-07-08T20:50:41;101300.63;;;21.03;48.15
12213;BME280;6169;44.158;22.788;2023-07-08T20:55:45;101302.25;;;21.28;47.11
12213;BME280;6169;44.158;22.788;2023-07-08T21:00:48;101302.38;;;20.59;48.37
12213;BME280;6169;44.158;22.788;2023-07-08T21:05:52;101302.63;;;20.97;48.64
12213;BME280;6169;44.158;22.788;2023-07-08T21:10:56;101305.69;;;20.61;48.09
12213;BME280;6169;44.158;22.788;2023-07-08T21:15:59;101298.56;;;20.55;47.62
12213;BME280;6169;44.158;22.788;2023-07-08T21:21:01;101299.69;;;20.54;48.80
12213;BME280;6169;44.158;22.788;2023-07-08T21:26:15;101307.50;;;20.42;46.93
12213;BME280;6169;44.158;22.788;2023-07-08T21:31:18;101304.50;;;21.02;49.01
12213;BME280;6169;44.158;22.788;2023-07-08T21:36:23;101300.97;;;20.96;47.53
12213;BME280;6169;44.158;22.788;2023-07-08T21:41:29;101311.94;;;20.43;47.24
12213;BME280;6169;44.158;22.788;2023-07-08T21:46:32;101310.00;;;20.43;48.53
12213;BME280;6169;44.158;22.788;2023-07-08T21:51:34;101309.63;;;20.55;48.38
12213;BME280;6169;44.158;22.788;2023-07-08T21:56:38;101310.84;;;20.39;47.85
12213;BME280;6169;44.158;22.788;2023-07-08T22:01:40;101309.31;;;20.22;50.24
12213;BME280;6169;44.158;22.788;2023-07-08T22:06:43;101311.66;;;20.00;47.65
12213;BME280;6169;44.158;22.788;2023-07-08T22:11:47;101305.50;;;20.18;47.74
12213;BME280;6169;44.158;22.788;2023-07-08T22:16:49;101305.00;;;20.06;47.97
12213;BME280;6169;44.158;22.788;2023-07-08T22:21:52;101293.09;;;20.16;48.67
12213;BME280;6169;44.158;22.788;2023-07-08T22:26:57;101300.75;;;20.24;50.45
12213;BME280;6169;44.158;22.788;2023-07-08T22:31:59;101304.94;;;20.11;50.58
12213;BME280;6169;44.158;22.788;2023-07-08T22:37:01;101298.91;;;20.09;50.62
12213;BME280;6169;44.158;22.788;2023-07-08T22:42:08;101301.94;;;20.08;49.53
12213;BME280;6169;44.158;22.788;2023-07-08T22:47:12;101299.97;;;20.18;51.42
12213;BME280;6169;44.158;22.788;2023-07-08T22:52:22;101304.09;;;20.21;51.38
12213;BME280;6169;44.158;22.788;2023-07-08T22:57:28;101302.34;;;19.91;50.67
12213;BME280;6169;44.158;22.788;2023-07-08T23:02:30;101297.56;;;20.46;51.80
12213;BME280;6169;44.158;22.788;2023-07-08T23:07:32;101299.94;;;20.23;51.51
12213;BME280;6169;44.158;22.788;2023-07-08T23:12:36;101302.50;;;19.60;51.41
12213;BME280;6169;44.158;22.788;2023-07-08T23:17:40;101300.72;;;19.85;52.65
12213;BME280;6169;44.158;22.788;2023-07-08T23:22:43;101303.31;;;19.66;53.62
12213;BME280;6169;44.158;22.788;2023-07-08T23:27:47;101306.19;;;19.95;52.90
12213;BME280;6169;44.158;22.788;2023-07-08T23:32:50;101303.84;;;19.68;52.10
12213;BME280;6169;44.158;22.788;2023-07-08T23:37:52;101311.97;;;19.38;52.48
12213;BME280;6169;44.158;22.788;2023-07-08T23:42:59;101308.31;;;19.58;52.98
12213;BME280;6169;44.158;22.788;2023-07-08T23:48:01;101296.41;;;18.88;52.76
12213;BME280;6169;44.158;22.788;2023-07-08T23:53:03;101296.81;;;19.36;53.71
12213;BME280;6169;44.158;22.788;2023-07-08T23:58:12;101305.72;;;19.77;54.44
